Time;durP1;ratioP1;P1;durP2;ratioP2;P2;SDS_P1;SDS_P2;PMS_P1;PMS_P2;Temp;Humidity;BMP_temperature;BMP_pressure;BME280_temperature;BME280_humidity;BME280_pressure;Samples;Min_cycle;Max_cycle;Signal;HPM_P1;HPM_P2
2021/12/25 00:01:06;;;;;;;26.95;16.62;;;;;;;1.68;100.00;99423.99;1665470;84;21122;-79
2021/12/25 00:03:35;;;;;;;26.68;16.65;;;;;;;1.68;100.00;99416.83;1673754;85;21066;-79
2021/12/25 00:06:03;;;;;;;28.90;16.73;;;;;;;1.68;100.00;99415.55;1673499;84;21070;-79
2021/12/25 00:08:31;;;;;;;28.57;15.65;;;;;;;1.66;100.00;99421.11;1631269;86;21069;-78
2021/12/25 00:11:02;;;;;;;24.18;14.43;;;;;;;1.67;100.00;99426.59;1660067;85;21044;-78
2021/12/25 00:13:29;;;;;;;28.95;16.70;;;;;;;1.58;100.00;99419.61;1666418;85;21054;-77
2021/12/25 00:15:55;;;;;;;30.75;18.27;;;;;;;1.60;100.00;99424.62;1660318;84;21074;-77
2021/12/25 00:18:23;;;;;;;33.05;19.57;;;;;;;1.60;100.00;99424.62;1657539;86;21061;-77
2021/12/25 00:20:50;;;;;;;37.65;20.48;;;;;;;1.56;100.00;99427.69;1668877;85;21561;-77
2021/12/25 00:23:17;;;;;;;36.95;21.23;;;;;;;1.57;100.00;99426.80;1654404;85;21531;-76
2021/12/25 00:25:49;;;;;;;33.15;20.55;;;;;;;1.60;100.00;99416.60;1662801;85;21137;-77
2021/12/25 00:28:36;;;;;;;31.60;18.20;;;;;;;1.63;100.00;99414.86;1682487;83;21039;-77
2021/12/25 00:33:50;;;;;;;35.52;19.12;;;;;;;1.46;100.00;99410.18;1690982;84;21051;-77
2021/12/25 00:36:00;;;;;;;32.23;19.87;;;;;;;1.53;100.00;99415.52;1688470;83;21059;-78
2021/12/25 00:38:28;;;;;;;34.65;19.25;;;;;;;1.54;100.00;99419.29;1685596;83;21095;-78
2021/12/25 00:40:55;;;;;;;31.85;18.35;;;;;;;1.55;100.00;99406.98;1689122;84;21496;-77
2021/12/25 00:43:21;;;;;;;31.12;18.98;;;;;;;1.50;100.00;99406.70;1685546;84;21066;-78
2021/12/25 00:45:48;;;;;;;33.33;19.30;;;;;;;1.49;100.00;99406.31;1682616;84;21099;-77
2021/12/25 00:48:16;;;;;;;35.15;20.17;;;;;;;1.46;100.00;99410.18;1684550;84;21115;-78
2021/12/25 00:50:43;;;;;;;38.48;21.87;;;;;;;1.46;100.00;99408.91;1676911;84;21016;-78
2021/12/25 00:53:09;;;;;;;37.35;21.25;;;;;;;1.52;100.00;99410.03;1687392;85;21591;-78
2021/12/25 00:55:37;;;;;;;33.70;19.12;;;;;;;1.54;100.00;99406.61;1688995;84;21164;-77
2021/12/25 00:58:03;;;;;;;37.40;20.68;;;;;;;1.50;100.00;99405.43;1688945;84;21050;-77
2021/12/25 01:00:32;;;;;;;34.53;19.80;;;;;;;1.44;100.00;99409.38;1665014;85;21106;-77
2021/12/25 01:02:59;;;;;;;35.15;20.70;;;;;;;1.42;100.00;99418.32;1686322;84;21530;-77
2021/12/25 01:05:27;;;;;;;38.65;22.25;;;;;;;1.42;100.00;99425.08;1679710;83;21069;-77
2021/12/25 01:07:54;;;;;;;46.48;24.40;;;;;;;1.43;100.00;99420.41;1687645;84;21036;-77
2021/12/25 01:10:23;;;;;;;42.95;24.35;;;;;;;1.46;100.00;99423.72;1686368;85;21543;-78
2021/12/25 01:13:22;;;;;;;40.30;22.60;;;;;;;1.51;100.00;99426.12;1682691;85;21530;-78
2021/12/25 01:21:33;;;;;;;36.38;21.80;;;;;;;1.50;100.00;99430.79;1682579;85;21091;-76
2021/12/25 01:29:30;;;;;;;37.15;22.77;;;;;;;1.40;100.00;99432.30;1679101;84;21790;-79
2021/12/25 01:37:57;;;;;;;39.33;21.68;;;;;;;1.41;100.00;99424.25;1650872;84;21039;-79
2021/12/25 01:48:52;;;;;;;35.65;21.62;;;;;;;1.34;100.00;99418.50;1688578;84;21082;-79
2021/12/25 01:51:19;;;;;;;35.75;21.12;;;;;;;1.30;100.00;99421.98;1685383;84;21046;-80
2021/12/25 01:53:46;;;;;;;35.23;20.52;;;;;;;1.30;100.00;99421.98;1695336;83;21079;-80
2021/12/25 01:56:14;;;;;;;35.43;21.30;;;;;;;1.36;100.00;99431.97;1692705;84;21059;-80
2021/12/25 01:58:43;;;;;;;39.35;21.85;;;;;;;1.33;100.00;99430.77;1680896;84;21062;-80
2021/12/25 02:01:11;;;;;;;32.90;19.07;;;;;;;1.28;100.00;99417.79;1669544;85;21051;-80
2021/12/25 02:03:39;;;;;;;34.00;19.35;;;;;;;1.16;100.00;99418.49;1685074;84;21218;-80
2021/12/25 02:06:09;;;;;;;28.10;16.57;;;;;;;1.17;100.00;99437.06;1686119;84;21586;-80
2021/12/25 02:08:40;;;;;;;29.48;18.17;;;;;;;1.14;100.00;99436.70;1683994;83;21147;-80
2021/12/25 02:11:10;;;;;;;36.48;19.82;;;;;;;1.09;100.00;99444.83;1691962;84;21592;-80
2021/12/25 02:13:42;;;;;;;37.63;21.15;;;;;;;1.09;100.00;99439.77;1695214;84;21056;-80
2021/12/25 02:16:15;;;;;;;37.75;21.07;;;;;;;1.08;100.00;99438.55;1682275;84;21067;-81
2021/12/25 02:19:00;;;;;;;37.75;20.10;;;;;;;1.04;100.00;99438.22;1660270;84;21532;-81
2021/12/25 02:21:25;;;;;;;60.83;25.97;;;;;;;1.03;100.00;99438.63;1686839;84;21544;-80
2021/12/25 02:23:49;;;;;;;55.25;24.47;;;;;;;1.00;100.00;99441.25;1685375;85;21063;-81
2021/12/25 02:26:18;;;;;;;58.13;26.62;;;;;;;0.89;100.00;99443.17;1689610;85;21035;-82
2021/12/25 02:28:46;;;;;;;53.75;25.52;;;;;;;0.89;100.00;99441.50;1682740;84;21142;-81
2021/12/25 02:31:16;;;;;;;42.48;21.85;;;;;;;0.89;100.00;99443.17;1687339;84;21090;-81
2021/12/25 02:33:44;;;;;;;35.90;19.27;;;;;;;0.90;100.00;99446.13;1690279;84;21015;-81
2021/12/25 02:36:14;;;;;;;31.42;18.62;;;;;;;0.89;100.00;99447.83;1687651;83;21059;-81
2021/12/25 02:38:43;;;;;;;30.15;18.57;;;;;;;0.91;100.00;99449.04;1687919;84;21049;-81
2021/12/25 02:41:11;;;;;;;40.10;20.95;;;;;;;0.81;100.00;99449.66;1689799;84;21563;-82
2021/12/25 02:43:39;;;;;;;35.15;21.02;;;;;;;0.84;100.00;99452.14;1691826;84;21586;-82
2021/12/25 02:46:06;;;;;;;37.38;22.15;;;;;;;0.84;100.00;99454.68;1681873;83;21560;-81
2021/12/25 02:48:37;;;;;;;33.55;20.05;;;;;;;0.85;100.00;99461.40;1686563;84;21597;-82
2021/12/25 02:51:05;;;;;;;35.08;18.95;;;;;;;0.81;100.00;99457.27;1684656;84;21340;-82
2021/12/25 02:53:33;;;;;;;36.88;20.77;;;;;;;0.79;100.00;99455.20;1684275;84;21094;-82
2021/12/25 02:56:00;;;;;;;36.33;19.95;;;;;;;0.77;100.00;99457.78;1689414;84;21086;-83
2021/12/25 02:58:28;;;;;;;41.08;21.12;;;;;;;0.72;100.00;99457.47;1683240;84;21058;-82
2021/12/25 03:01:09;;;;;;;59.33;27.75;;;;;;;0.73;100.00;99455.33;1685649;83;21046;-83
2021/12/25 03:03:36;;;;;;;47.10;22.95;;;;;;;0.75;100.00;99456.12;1688086;84;21070;-83
2021/12/25 03:06:05;;;;;;;49.00;24.63;;;;;;;0.73;100.00;99465.45;1688233;83;21519;-83
2021/12/25 03:08:34;;;;;;;40.65;22.22;;;;;;;0.72;100.00;99461.27;1687619;84;21539;-85
2021/12/25 03:11:06;;;;;;;40.90;22.30;;;;;;;0.70;100.00;99459.20;1689723;85;21086;-83
2021/12/25 03:13:44;;;;;;;45.03;22.27;;;;;;;0.71;100.00;99456.64;1680318;84;21651;-85
2021/12/25 03:16:09;;;;;;;41.83;22.42;;;;;;;0.75;100.00;99454.45;1681296;83;21141;-83
2021/12/25 03:18:46;;;;;;;41.85;21.87;;;;;;;0.78;100.00;99458.61;1695541;84;21531;-83
2021/12/25 03:21:13;;;;;;;39.63;21.53;;;;;;;0.75;100.00;99464.58;1683790;84;21107;-85
2021/12/25 03:23:41;;;;;;;40.48;21.85;;;;;;;0.76;100.00;99465.41;1683147;83;21107;-83
2021/12/25 03:26:09;;;;;;;47.53;22.93;;;;;;;0.77;100.00;99467.92;1682350;83;21080;-85
2021/12/25 03:28:42;;;;;;;45.78;24.02;;;;;;;0.79;100.00;99476.73;1682775;83;21093;-84
2021/12/25 03:31:16;;;;;;;44.88;22.87;;;;;;;0.78;100.00;99473.37;1681000;84;21540;-84
2021/12/25 03:33:42;;;;;;;50.35;22.87;;;;;;;0.85;100.00;99463.93;1694996;84;21584;-84
2021/12/25 03:36:09;;;;;;;39.92;21.33;;;;;;;0.82;100.00;99473.32;1686763;84;21525;-84
2021/12/25 03:38:37;;;;;;;47.58;22.70;;;;;;;0.81;100.00;99477.53;1687967;84;21082;-84
2021/12/25 03:41:06;;;;;;;56.23;25.60;;;;;;;0.82;100.00;99476.68;1685261;84;21043;-83
2021/12/25 03:43:38;;;;;;;59.08;26.77;;;;;;;0.87;100.00;99494.31;1691164;83;21039;-82
2021/12/25 03:46:09;;;;;;;58.05;27.15;;;;;;;0.93;100.00;99488.70;1676524;84;21049;-82
2021/12/25 03:59:41;;;;;;;38.10;20.48;;;;;;;0.97;100.00;99514.38;1699132;84;21066;-81
2021/12/25 04:02:17;;;;;;;34.25;19.52;;;;;;;1.04;100.00;99516.34;1679844;83;21605;-81
2021/12/25 04:04:42;;;;;;;38.30;21.42;;;;;;;1.03;100.00;99531.57;1690700;84;21043;-81
2021/12/25 04:07:12;;;;;;;40.08;21.45;;;;;;;1.04;100.00;99533.26;1689181;84;21064;-81
2021/12/25 04:09:35;;;;;;;38.58;20.25;;;;;;;1.03;100.00;99532.84;1694666;84;21141;-81
2021/12/25 04:12:07;;;;;;;41.73;20.30;;;;;;;1.04;100.00;99535.79;1724022;81;21082;-81
2021/12/25 04:14:39;;;;;;;41.83;21.23;;;;;;;1.05;100.00;99542.52;1725424;82;21478;-80
2021/12/25 04:17:06;;;;;;;37.00;21.23;;;;;;;1.03;100.00;99541.71;1724297;81;21036;-81
2021/12/25 04:19:35;;;;;;;43.70;24.30;;;;;;;1.08;100.00;99525.55;1725342;82;21072;-81
2021/12/25 04:22:09;;;;;;;41.75;23.65;;;;;;;1.12;100.00;99523.80;1726043;82;21016;-80
2021/12/25 04:24:37;;;;;;;44.20;24.90;;;;;;;1.15;100.00;99514.40;1726573;82;21065;-81
2021/12/25 04:27:06;;;;;;;39.18;21.90;;;;;;;1.20;100.00;99508.81;1720050;83;21012;-81
2021/12/25 04:29:38;;;;;;;39.23;21.73;;;;;;;1.22;100.00;99513.85;1730687;82;21086;-81
2021/12/25 05:05:13;;;;;;;41.63;21.00;;;;;;;1.80;100.00;99491.36;1729597;82;21091;-88
2021/12/25 05:07:42;;;;;;;49.30;24.90;;;;;;;1.92;100.00;99496.58;1718013;81;21024;-89
2021/12/25 05:10:09;;;;;;;47.08;25.30;;;;;;;2.00;100.00;99506.92;1724195;82;21057;-90
2021/12/25 05:12:37;;;;;;;41.08;22.40;;;;;;;2.11;100.00;99505.41;1716997;82;21108;-89
2021/12/25 05:15:06;;;;;;;41.05;22.17;;;;;;;2.12;100.00;99498.61;1708559;82;21541;-86
2021/12/25 05:17:34;;;;;;;38.25;21.55;;;;;;;2.17;100.00;99504.39;1721735;82;21456;-88
2021/12/25 05:20:01;;;;;;;45.25;23.92;;;;;;;2.18;100.00;99489.13;1716675;82;21139;-88
2021/12/25 05:22:28;;;;;;;43.40;23.12;;;;;;;2.16;100.00;99496.39;1726705;82;21512;-87
2021/12/25 05:24:55;;;;;;;44.53;24.05;;;;;;;2.19;100.00;99506.48;1725912;83;21519;-87
2021/12/25 05:27:23;;;;;;;38.42;21.82;;;;;;;2.23;100.00;99495.79;1703791;83;21124;-86
2021/12/25 05:29:50;;;;;;;41.05;21.35;;;;;;;2.23;100.00;99495.79;1731071;82;21079;-85
2021/12/25 05:32:19;;;;;;;40.12;22.80;;;;;;;2.23;100.00;99504.27;1728030;82;21061;-85
2021/12/25 05:34:49;;;;;;;46.50;23.85;;;;;;;2.25;100.00;99503.78;1727213;83;21091;-85
2021/12/25 05:37:18;;;;;;;43.78;23.38;;;;;;;2.31;100.00;99517.59;1714309;81;21091;-84
2021/12/25 05:40:04;;;;;;;43.48;23.90;;;;;;;2.39;100.00;99518.22;1720699;82;21090;-84
2021/12/25 05:42:33;;;;;;;38.35;22.10;;;;;;;2.44;100.00;99533.33;1730941;83;21068;-84
2021/12/25 05:45:00;;;;;;;39.80;23.80;;;;;;;2.51;100.00;99537.80;1719622;81;21071;-82
2021/12/25 05:47:28;;;;;;;39.83;22.48;;;;;;;2.47;100.00;99531.97;1717397;82;21048;-83
2021/12/25 05:49:56;;;;;;;39.83;22.77;;;;;;;2.50;100.00;99543.33;1723403;81;21024;-83
2021/12/25 05:52:25;;;;;;;44.70;24.55;;;;;;;2.57;100.00;99543.55;1719989;81;21087;-83
2021/12/25 05:55:00;;;;;;;48.78;26.70;;;;;;;2.59;100.00;99546.88;1729852;82;21071;-85
2021/12/25 05:57:38;;;;;;;43.50;25.05;;;;;;;2.70;100.00;99554.67;1729117;81;21082;-83
2021/12/25 06:00:11;;;;;;;45.28;24.65;;;;;;;2.75;100.00;99561.72;1721526;82;21033;-85
2021/12/25 06:02:47;;;;;;;39.55;23.38;;;;;;;2.78;100.00;99574.36;1701729;83;21836;-80
2021/12/25 06:05:21;;;;;;;44.67;24.72;;;;;;;2.79;100.00;99623.86;1703396;82;21596;-80
2021/12/25 06:07:47;;;;;;;47.17;24.12;;;;;;;2.81;100.00;99647.97;1736028;81;21068;-79
2021/12/25 06:10:15;;;;;;;46.28;24.00;;;;;;;2.84;100.00;99635.61;1736112;83;21044;-81
2021/12/25 06:12:47;;;;;;;45.63;24.67;;;;;;;2.87;100.00;99622.39;1720017;82;21563;-82
2021/12/25 06:15:20;;;;;;;42.48;24.98;;;;;;;2.91;100.00;99643.48;1724024;82;21051;-81
2021/12/25 06:17:49;;;;;;;41.05;23.30;;;;;;;2.91;100.00;99640.49;1722344;83;21080;-80
2021/12/25 06:20:19;;;;;;;45.38;25.40;;;;;;;2.93;100.00;99653.17;1723542;81;21037;-80
2021/12/25 06:22:57;;;;;;;45.60;25.57;;;;;;;2.91;100.00;99648.56;1728327;82;21529;-80
2021/12/25 06:25:35;;;;;;;48.15;25.10;;;;;;;2.90;100.00;99643.92;1704434;82;21128;-80
2021/12/25 06:28:20;;;;;;;41.28;22.55;;;;;;;2.90;100.00;99648.16;1735022;82;21016;-80
2021/12/25 06:30:57;;;;;;;41.53;24.32;;;;;;;2.89;100.00;99647.33;1690660;84;21044;-81
2021/12/25 06:33:32;;;;;;;40.50;23.62;;;;;;;2.95;100.00;99650.15;1712190;83;21047;-80
2021/12/25 06:36:17;;;;;;;45.83;24.85;;;;;;;2.99;100.00;99649.19;1725223;81;21528;-82
2021/12/25 06:39:05;;;;;;;43.73;24.75;;;;;;;2.96;100.00;99639.95;1697396;83;21643;-81
2021/12/25 06:41:33;;;;;;;40.78;23.92;;;;;;;3.00;100.00;99642.80;1696397;82;21026;-81
2021/12/25 06:44:01;;;;;;;40.67;23.57;;;;;;;3.01;100.00;99643.63;1710083;83;21010;-80
2021/12/25 06:46:34;;;;;;;41.30;22.90;;;;;;;3.03;100.00;99637.23;1704929;83;21070;-81
2021/12/25 06:49:01;;;;;;;39.08;24.77;;;;;;;3.02;100.00;99633.84;1708988;83;21078;-81
2021/12/25 06:51:34;;;;;;;40.70;25.35;;;;;;;3.07;100.00;99636.28;1689427;83;21022;-82
2021/12/25 06:54:11;;;;;;;40.00;23.98;;;;;;;3.08;100.00;99634.97;1665026;84;21650;-82
2021/12/25 06:56:49;;;;;;;40.30;24.65;;;;;;;3.08;100.00;99626.48;1680669;83;21082;-82
2021/12/25 06:59:25;;;;;;;44.58;24.70;;;;;;;3.12;100.00;99625.11;1687160;84;21039;-81
2021/12/25 07:01:51;;;;;;;41.45;24.47;;;;;;;3.20;100.00;99618.52;1660253;86;21575;-81
2021/12/25 07:04:36;;;;;;;43.23;24.43;;;;;;;3.24;100.00;99629.00;1660739;86;21083;-82
2021/12/25 07:07:23;;;;;;;42.88;24.50;;;;;;;3.23;100.00;99622.71;1698917;84;21036;-82
2021/12/25 07:10:09;;;;;;;42.88;24.47;;;;;;;3.25;100.00;99609.06;1682408;84;21008;-80
2021/12/25 07:12:54;;;;;;;45.08;25.82;;;;;;;3.25;100.00;99610.33;1693776;83;21051;-81
2021/12/25 07:15:29;;;;;;;42.65;25.12;;;;;;;3.31;100.00;99628.41;1656387;85;21075;-82
2021/12/25 07:18:07;;;;;;;40.25;23.00;;;;;;;3.35;100.00;99627.45;1701505;83;21063;-82
2021/12/25 07:20:42;;;;;;;42.50;24.63;;;;;;;3.41;100.00;99638.27;1648818;86;21103;-83
2021/12/25 07:23:28;;;;;;;42.93;23.65;;;;;;;3.53;100.00;99638.36;1684719;85;21078;-83
2021/12/25 07:26:00;;;;;;;40.35;23.62;;;;;;;3.59;100.00;99637.36;1693069;84;21109;-83
2021/12/25 07:28:47;;;;;;;40.75;24.30;;;;;;;3.66;100.00;99641.37;1688967;84;21000;-85
2021/12/25 07:31:15;;;;;;;43.63;25.50;;;;;;;3.68;100.00;99631.15;1656205;85;21060;-83
2021/12/25 07:33:42;;;;;;;43.52;24.47;;;;;;;3.69;100.00;99637.89;1653156;86;21551;-82
2021/12/25 07:36:11;;;;;;;52.55;28.10;;;;;;;3.72;100.00;99664.09;1659181;86;21058;-84
2021/12/25 07:38:38;;;;;;;48.78;26.57;;;;;;;3.78;100.00;99690.64;1658938;85;21028;-88
2021/12/25 07:41:06;;;;;;;44.15;24.82;;;;;;;3.84;100.00;99677.34;1649210;85;21103;-89
2021/12/25 07:43:33;;;;;;;39.90;22.65;;;;;;;3.82;100.00;99679.94;1653967;85;21011;-83
2021/12/25 07:46:02;;;;;;;39.90;23.18;;;;;;;3.82;100.00;99677.39;1657315;85;21511;-88
2021/12/25 07:48:31;;;;;;;41.53;24.27;;;;;;;3.81;100.00;99689.29;1656286;84;21098;-86
2021/12/25 07:50:58;;;;;;;40.55;23.95;;;;;;;3.83;100.00;99686.67;1665668;86;21075;-88
2021/12/25 07:53:26;;;;;;;41.05;24.87;;;;;;;3.86;100.00;99688.33;1665123;86;21558;-87
2021/12/25 07:55:53;;;;;;;47.48;26.05;;;;;;;4.00;100.00;99682.38;1665407;85;21066;-89
2021/12/25 07:58:20;;;;;;;47.08;27.07;;;;;;;3.99;100.00;99684.09;1659192;86;21075;-84
2021/12/25 08:00:46;;;;;;;46.37;26.27;;;;;;;4.01;100.00;99673.84;1666359;84;21055;-89
2021/12/25 08:03:18;;;;;;;45.17;25.65;;;;;;;3.98;100.00;99670.12;1702546;84;21083;-85
2021/12/25 08:05:45;;;;;;;41.90;24.27;;;;;;;4.03;100.00;99668.70;1703223;83;21011;-84
2021/12/25 08:08:12;;;;;;;43.95;25.72;;;;;;;3.99;100.00;99674.33;1702295;83;21054;-85
2021/12/25 08:10:42;;;;;;;43.90;25.82;;;;;;;4.00;100.00;99664.10;1701723;82;21047;-85
2021/12/25 08:13:13;;;;;;;39.83;23.95;;;;;;;4.03;100.00;99670.80;1711870;83;21022;-85
2021/12/25 08:15:40;;;;;;;41.13;24.82;;;;;;;4.03;100.00;99666.98;1702293;83;21011;-83
2021/12/25 08:18:09;;;;;;;43.30;26.30;;;;;;;4.02;100.00;99672.98;1715355;83;21011;-86
2021/12/25 08:20:38;;;;;;;41.65;24.55;;;;;;;4.00;100.00;99674.73;1720340;83;21038;-88
2021/12/25 08:23:23;;;;;;;42.38;25.23;;;;;;;3.96;100.00;99676.98;1719816;83;21071;-88
2021/12/25 08:26:09;;;;;;;41.58;25.52;;;;;;;3.95;100.00;99671.48;1724005;82;21103;-85
2021/12/25 08:28:54;;;;;;;40.00;24.95;;;;;;;3.98;100.00;99679.86;1722797;83;21023;-87
2021/12/25 08:31:43;;;;;;;44.27;25.23;;;;;;;4.01;100.00;99686.16;1722318;83;21125;-87
2021/12/25 08:34:28;;;;;;;44.55;25.17;;;;;;;4.07;100.00;99700.84;1718419;83;21070;-87
2021/12/25 08:37:00;;;;;;;45.23;26.62;;;;;;;4.06;100.00;99702.56;1718565;82;21043;-84
2021/12/25 08:39:26;;;;;;;45.58;25.32;;;;;;;4.11;100.00;99705.78;1720731;83;21078;-84
2021/12/25 08:42:01;;;;;;;38.28;22.45;;;;;;;4.15;100.00;99719.27;1704779;83;21518;-85
2021/12/25 08:44:41;;;;;;;41.13;24.05;;;;;;;4.18;100.00;99712.82;1700775;83;21050;-86
2021/12/25 08:47:11;;;;;;;40.52;24.43;;;;;;;4.16;100.00;99712.86;1720158;83;21043;-81
2021/12/25 08:49:41;;;;;;;43.95;24.35;;;;;;;4.15;100.00;99717.55;1711588;82;21078;-84
2021/12/25 08:52:12;;;;;;;40.98;24.20;;;;;;;4.19;100.00;99709.38;1721555;83;21046;-81
2021/12/25 08:54:41;;;;;;;38.63;23.50;;;;;;;4.19;100.00;99708.10;1708052;83;21057;-80
2021/12/25 08:57:08;;;;;;;40.85;23.40;;;;;;;4.23;100.00;99706.30;1724107;82;21070;-81
2021/12/25 08:59:38;;;;;;;42.65;24.15;;;;;;;4.37;100.00;99704.16;1722544;83;21078;-80
2021/12/25 09:02:10;;;;;;;39.45;24.25;;;;;;;4.49;100.00;99701.22;1719715;82;21129;-81
2021/12/25 09:04:38;;;;;;;38.63;23.00;;;;;;;4.47;100.00;99706.80;1722282;83;21066;-79
2021/12/25 09:07:08;;;;;;;40.75;23.60;;;;;;;4.49;100.00;99713.13;1699198;83;21042;-73
2021/12/25 09:09:36;;;;;;;41.53;23.35;;;;;;;4.46;100.00;99716.63;1718116;83;21538;-76
2021/12/25 09:12:06;;;;;;;39.92;23.47;;;;;;;4.42;100.00;99706.14;1722125;83;21011;-76
2021/12/25 09:14:34;;;;;;;36.28;22.25;;;;;;;4.44;100.00;99704.37;1671402;83;21054;-75
2021/12/25 09:17:00;;;;;;;37.35;21.80;;;;;;;4.54;100.00;99708.29;1716664;83;21042;-76
2021/12/25 09:19:27;;;;;;;39.33;24.27;;;;;;;4.64;100.00;99710.08;1719621;82;21101;-74
2021/12/25 09:21:53;;;;;;;41.92;24.02;;;;;;;4.69;100.00;99712.05;1717283;83;21027;-76
2021/12/25 09:24:20;;;;;;;39.88;22.93;;;;;;;4.69;100.00;99717.59;1715932;82;21075;-74
2021/12/25 09:26:48;;;;;;;43.35;24.63;;;;;;;4.71;100.00;99731.95;1718058;82;21523;-75
2021/12/25 09:29:14;;;;;;;41.42;24.12;;;;;;;4.80;100.00;99734.63;1713908;82;21530;-75
2021/12/25 09:31:41;;;;;;;42.43;24.23;;;;;;;4.79;100.00;99740.18;1722912;83;21066;-75
2021/12/25 09:34:08;;;;;;;43.85;23.98;;;;;;;4.85;100.00;99741.70;1703849;83;21120;-74
2021/12/25 09:36:36;;;;;;;40.38;22.98;;;;;;;4.88;100.00;99736.48;1698352;84;21592;-75
2021/12/25 09:39:06;;;;;;;43.40;24.37;;;;;;;4.83;100.00;99735.83;1694144;83;21098;-75
2021/12/25 09:41:34;;;;;;;39.90;23.47;;;;;;;4.82;100.00;99726.48;1717192;83;21048;-74
2021/12/25 09:44:03;;;;;;;39.65;23.87;;;;;;;4.81;100.00;99725.67;1671390;85;21062;-73
2021/12/25 09:46:30;;;;;;;40.15;23.07;;;;;;;4.85;100.00;99720.48;1723325;82;21608;-74
2021/12/25 09:48:58;;;;;;;39.58;23.95;;;;;;;4.73;100.00;99711.52;1725903;82;21555;-73
2021/12/25 09:51:25;;;;;;;35.80;20.97;;;;;;;4.65;100.00;99703.28;1727353;81;21035;-74
2021/12/25 09:54:03;;;;;;;40.12;24.45;;;;;;;4.59;100.00;99705.58;1721009;83;21576;-73
2021/12/25 09:56:30;;;;;;;44.50;25.12;;;;;;;4.56;100.00;99702.70;1723620;82;21172;-73
2021/12/25 09:58:57;;;;;;;44.48;24.92;;;;;;;4.56;100.00;99699.30;1728295;83;21071;-73
2021/12/25 10:01:48;;;;;;;46.98;24.85;;;;;;;4.49;100.00;99713.96;1723682;81;21523;-74
2021/12/25 10:04:41;;;;;;;38.92;22.27;;;;;;;4.48;100.00;99704.66;1730996;82;21040;-73
2021/12/25 10:07:16;;;;;;;;;;;;;;;4.51;100.00;99720.29;1725469;81;21036;-73
2021/12/25 10:09:42;;;;;;;51.37;26.37;;;;;;;4.45;100.00;99725.58;1735010;82;20104;-74
2021/12/25 10:12:13;;;;;;;46.50;24.20;;;;;;;4.35;100.00;99732.67;1700431;83;21061;-73
2021/12/25 10:14:46;;;;;;;49.13;25.85;;;;;;;4.28;100.00;99732.04;1686306;83;21106;-73
2021/12/25 10:17:23;;;;;;;45.43;26.07;;;;;;;4.25;100.00;99735.94;1678832;84;21022;-73
2021/12/25 10:20:15;;;;;;;42.85;24.75;;;;;;;4.32;100.00;99732.75;1656826;86;21055;-73
2021/12/25 10:23:12;;;;;;;42.03;25.15;;;;;;;4.45;100.00;99737.88;1667394;84;21098;-73
2021/12/25 10:25:51;;;;;;;45.20;26.25;;;;;;;4.56;100.00;99749.85;1709898;83;21580;-73
2021/12/25 10:28:39;;;;;;;57.58;34.08;;;;;;;4.74;100.00;99759.05;1708271;83;21070;-74
2021/12/25 10:31:16;;;;;;;58.35;35.03;;;;;;;4.79;100.00;99760.58;1658455;85;21070;-74
2021/12/25 10:33:53;;;;;;;59.50;36.58;;;;;;;4.83;100.00;99762.59;1692297;84;21597;-75
2021/12/25 10:36:36;;;;;;;48.58;28.92;;;;;;;4.87;100.00;99763.34;1696861;83;21056;-74
2021/12/25 10:39:16;;;;;;;58.83;36.68;;;;;;;4.83;100.00;99756.22;1673553;84;21004;-74
2021/12/25 10:42:02;;;;;;;47.60;28.30;;;;;;;4.85;100.00;99737.06;1688013;83;21015;-74
2021/12/25 10:44:32;;;;;;;43.65;25.80;;;;;;;4.79;100.00;99729.98;1703618;83;21065;-74
2021/12/25 10:47:03;;;;;;;50.70;29.72;;;;;;;4.77;100.00;99725.83;1691318;84;21041;-74
2021/12/25 10:49:34;;;;;;;50.73;28.80;;;;;;;4.93;100.00;99755.04;1698602;82;21539;-74
2021/12/25 10:52:25;;;;;;;40.43;25.37;;;;;;;5.07;100.00;99755.86;1726908;82;21039;-72
2021/12/25 10:54:59;;;;;;;45.10;26.35;;;;;;;5.06;100.00;99745.25;1724932;82;21619;-73
2021/12/25 10:57:38;;;;;;;47.90;26.93;;;;;;;5.02;100.00;99751.34;1696393;83;21421;-74
2021/12/25 11:00:31;;;;;;;64.77;34.20;;;;;;;4.91;100.00;99756.80;1707959;83;21585;-73
2021/12/25 11:03:03;;;;;;;57.10;30.15;;;;;;;4.87;100.00;99754.41;1706598;83;21038;-73
2021/12/25 11:05:35;;;;;;;49.85;29.82;;;;;;;4.94;100.00;99752.86;1711440;83;21031;-73
2021/12/25 11:08:18;;;;;;;43.65;25.45;;;;;;;5.01;100.00;99758.17;1662167;85;21018;-72
2021/12/25 11:10:53;;;;;;;47.08;26.10;;;;;;;4.90;100.00;99753.02;1711670;83;21114;-72
2021/12/25 11:13:32;;;;;;;46.37;26.77;;;;;;;4.90;100.00;99751.75;1705599;83;21599;-71
2021/12/25 11:16:05;;;;;;;52.15;27.55;;;;;;;4.81;100.00;99749.89;1672443;84;21101;-72
2021/12/25 11:19:05;;;;;;;42.70;25.27;;;;;;;4.84;100.00;99738.75;1645979;86;21106;-73
2021/12/25 11:21:46;;;;;;;48.98;27.62;;;;;;;4.76;100.00;99736.89;1686188;84;21551;-72
2021/12/25 11:24:20;;;;;;;74.97;33.78;;;;;;;4.75;100.00;99759.47;1693862;83;21601;-73
2021/12/25 11:26:56;;;;;;;50.58;25.77;;;;;;;4.74;100.00;99762.43;1696511;83;21043;-67
2021/12/25 11:29:28;;;;;;;116.70;31.80;;;;;;;4.67;100.00;99766.52;1703287;83;21063;-67
2021/12/25 11:31:57;;;;;;;53.92;25.88;;;;;;;4.61;100.00;99765.00;1700077;84;21051;-67
2021/12/25 11:34:26;;;;;;;46.40;26.45;;;;;;;4.57;100.00;99768.07;1698020;84;21055;-67
2021/12/25 11:45:16;;;;;;;55.85;27.13;;;;;;;4.55;100.00;99779.20;1771712;80;21653;-68
2021/12/25 11:47:51;;;;;;;48.73;26.87;;;;;;;4.43;100.00;99770.22;1733869;81;21089;-68
2021/12/25 11:50:39;;;;;;;53.02;27.73;;;;;;;4.42;100.00;99767.30;1733037;82;21047;-68
2021/12/25 11:53:24;;;;;;;55.10;27.52;;;;;;;4.31;100.00;99771.87;1749586;82;21052;-68
2021/12/25 11:58:59;;;;;;;44.10;26.37;;;;;;;4.22;100.00;99802.28;1738279;82;21079;-68
2021/12/25 12:01:52;;;;;;;48.75;27.32;;;;;;;4.28;100.00;99813.98;1754263;81;21561;-67
2021/12/25 12:04:26;;;;;;;49.38;27.65;;;;;;;4.39;100.00;99800.50;1754426;82;21515;-68
2021/12/25 12:07:06;;;;;;;53.65;28.52;;;;;;;4.53;100.00;99804.73;1749093;80;21545;-68
2021/12/25 12:09:55;;;;;;;53.92;27.85;;;;;;;4.49;100.00;99806.16;1755913;80;21029;-67
2021/12/25 12:12:27;;;;;;;45.35;26.00;;;;;;;4.46;100.00;99809.64;1750061;81;21078;-68
2021/12/25 12:15:19;;;;;;;60.52;29.48;;;;;;;4.49;100.00;99843.11;1753387;80;21023;-68
2021/12/25 12:18:31;;;;;;;73.87;31.65;;;;;;;4.51;100.00;99857.47;1748617;80;21538;-68
2021/12/25 12:21:23;;;;;;;75.40;31.30;;;;;;;4.49;100.00;99863.50;1752011;80;21027;-67
2021/12/25 12:24:21;;;;;;;84.03;33.83;;;;;;;4.49;100.00;99869.88;1745768;82;21566;-68
2021/12/25 12:26:52;;;;;;;75.65;32.53;;;;;;;4.43;100.00;99877.25;1730374;81;21606;-68
2021/12/25 12:29:48;;;;;;;69.30;32.60;;;;;;;4.37;100.00;99878.25;1742150;81;21083;-68
2021/12/25 12:32:23;;;;;;;60.03;32.60;;;;;;;4.27;100.00;99877.30;1746622;82;20992;-68
2021/12/25 12:34:53;;;;;;;57.95;31.45;;;;;;;4.24;100.00;99886.28;1729004;82;21047;-68
2021/12/25 12:37:25;;;;;;;56.10;29.25;;;;;;;4.19;100.00;99894.06;1748830;80;21055;-68
2021/12/25 12:40:03;;;;;;;55.80;31.25;;;;;;;4.18;100.00;99906.42;1752113;81;21046;-68
2021/12/25 12:42:49;;;;;;;50.83;29.25;;;;;;;4.19;100.00;99913.99;1745906;80;21067;-68
2021/12/25 12:45:26;;;;;;;52.93;29.45;;;;;;;4.21;100.00;99912.23;1734539;82;21016;-67
2021/12/25 12:48:19;;;;;;;60.63;33.10;;;;;;;4.20;100.00;99906.77;1738310;81;21027;-68
2021/12/25 12:50:51;;;;;;;52.05;29.80;;;;;;;4.20;100.00;99916.13;1748764;81;20981;-68
2021/12/25 12:53:21;;;;;;;48.65;30.30;;;;;;;4.26;100.00;99932.52;1737847;82;21034;-67
2021/12/25 12:55:52;;;;;;;45.58;28.42;;;;;;;4.33;100.00;99928.08;1719991;82;21070;-68
2021/12/25 12:58:26;;;;;;;46.83;28.40;;;;;;;4.40;100.00;99932.97;1737841;82;21028;-67
2021/12/25 13:01:04;;;;;;;47.73;28.60;;;;;;;4.46;100.00;99937.48;1738758;82;21034;-67
2021/12/25 13:03:33;;;;;;;51.42;29.85;;;;;;;4.50;100.00;99933.97;1725679;82;21071;-68
2021/12/25 13:06:10;;;;;;;45.52;27.90;;;;;;;4.49;100.00;99925.49;1732552;82;21074;-68